sensor_id;sensor_type;location;lat;lon;timestamp;noise_LAeq;noise_LA_min;noise_LA_max;noise_LA01;noise_LA95
74496;Laerm;62979;55.720;37.606;2023-03-14T00:00:08;50.57;46.00;57.27;;
74496;Laerm;62979;55.720;37.606;2023-03-14T00:02:36;50.96;46.18;56.94;;
74496;Laerm;62979;55.720;37.606;2023-03-14T00:05:06;51.60;46.13;59.26;;
74496;Laerm;62979;55.720;37.606;2023-03-14T00:07:34;51.49;46.72;59.09;;
74496;Laerm;62979;55.720;37.606;2023-03-14T00:10:03;51.44;46.62;57.07;;
74496;Laerm;62979;55.720;37.606;2023-03-14T00:12:31;50.95;45.60;55.19;;
74496;Laerm;62979;55.720;37.606;2023-03-14T00:14:58;50.73;45.83;56.64;;
74496;Laerm;62979;55.720;37.606;2023-03-14T00:17:29;51.49;45.75;58.59;;
74496;Laerm;62979;55.720;37.606;2023-03-14T00:19:56;51.34;46.00;57.84;;
74496;Laerm;62979;55.720;37.606;2023-03-14T00:22:30;51.18;46.77;58.89;;
74496;Laerm;62979;55.720;37.606;2023-03-14T00:24:57;51.39;47.14;57.38;;
74496;Laerm;62979;55.720;37.606;2023-03-14T00:27:24;51.93;47.31;57.42;;
74496;Laerm;62979;55.720;37.606;2023-03-14T00:29:51;51.43;46.88;57.09;;
74496;Laerm;62979;55.720;37.606;2023-03-14T00:32:18;50.76;46.22;57.06;;
74496;Laerm;62979;55.720;37.606;2023-03-14T00:34:45;50.26;45.61;56.34;;
74496;Laerm;62979;55.720;37.606;2023-03-14T00:37:13;50.68;45.78;57.94;;
74496;Laerm;62979;55.720;37.606;2023-03-14T00:39:42;50.44;45.38;58.11;;
74496;Laerm;62979;55.720;37.606;2023-03-14T00:42:09;49.68;44.93;54.32;;
74496;Laerm;62979;55.720;37.606;2023-03-14T00:44:36;49.73;44.32;57.27;;
74496;Laerm;62979;55.720;37.606;2023-03-14T00:47:03;49.49;44.93;55.58;;
74496;Laerm;62979;55.720;37.606;2023-03-14T00:49:30;49.09;44.65;56.57;;
74496;Laerm;62979;55.720;37.606;2023-03-14T00:51:57;49.43;44.80;56.05;;
74496;Laerm;62979;55.720;37.606;2023-03-14T00:54:24;51.32;43.74;60.67;;
74496;Laerm;62979;55.720;37.606;2023-03-14T00:56:52;49.94;44.22;55.77;;
74496;Laerm;62979;55.720;37.606;2023-03-14T00:59:19;49.49;44.67;58.32;;
74496;Laerm;62979;55.720;37.606;2023-03-14T01:01:45;49.30;44.21;56.04;;
74496;Laerm;62979;55.720;37.606;2023-03-14T01:04:13;50.05;45.17;56.72;;
74496;Laerm;62979;55.720;37.606;2023-03-14T01:06:40;50.61;45.52;59.52;;
74496;Laerm;62979;55.720;37.606;2023-03-14T01:09:07;49.43;45.06;67.29;;
74496;Laerm;62979;55.720;37.606;2023-03-14T01:11:34;49.83;45.02;55.18;;
74496;Laerm;62979;55.720;37.606;2023-03-14T01:14:04;49.36;43.85;55.68;;
74496;Laerm;62979;55.720;37.606;2023-03-14T01:16:34;50.03;45.53;55.77;;
74496;Laerm;62979;55.720;37.606;2023-03-14T01:19:02;48.97;44.86;55.34;;
74496;Laerm;62979;55.720;37.606;2023-03-14T01:21:32;49.97;44.37;56.63;;
74496;Laerm;62979;55.720;37.606;2023-03-14T01:24:01;52.30;44.65;72.49;;
74496;Laerm;62979;55.720;37.606;2023-03-14T01:26:32;50.11;45.08;57.07;;
74496;Laerm;62979;55.720;37.606;2023-03-14T01:29:00;49.90;44.59;55.21;;
74496;Laerm;62979;55.720;37.606;2023-03-14T01:31:28;49.99;45.65;56.10;;
74496;Laerm;62979;55.720;37.606;2023-03-14T01:33:55;50.31;45.78;59.69;;
74496;Laerm;62979;55.720;37.606;2023-03-14T01:36:22;51.27;46.46;56.91;;
74496;Laerm;62979;55.720;37.606;2023-03-14T01:38:49;49.52;44.86;55.18;;
74496;Laerm;62979;55.720;37.606;2023-03-14T01:41:18;49.02;44.28;56.66;;
74496;Laerm;62979;55.720;37.606;2023-03-14T01:43:46;49.21;45.35;60.57;;
74496;Laerm;62979;55.720;37.606;2023-03-14T01:46:33;49.74;44.96;57.34;;
74496;Laerm;62979;55.720;37.606;2023-03-14T01:49:09;49.86;44.52;62.90;;
74496;Laerm;62979;55.720;37.606;2023-03-14T01:51:45;49.16;44.98;54.33;;
74496;Laerm;62979;55.720;37.606;2023-03-14T01:54:20;50.16;45.14;61.13;;
74496;Laerm;62979;55.720;37.606;2023-03-14T01:56:53;49.18;44.50;53.80;;
74496;Laerm;62979;55.720;37.606;2023-03-14T01:59:22;49.87;45.23;56.12;;
74496;Laerm;62979;55.720;37.606;2023-03-14T02:01:54;50.05;44.82;63.79;;
74496;Laerm;62979;55.720;37.606;2023-03-14T02:04:23;49.79;45.44;60.47;;
74496;Laerm;62979;55.720;37.606;2023-03-14T02:06:59;49.47;45.29;55.45;;
74496;Laerm;62979;55.720;37.606;2023-03-14T02:09:30;49.68;45.64;62.44;;
74496;Laerm;62979;55.720;37.606;2023-03-14T02:11:58;49.52;44.70;57.02;;
74496;Laerm;62979;55.720;37.606;2023-03-14T02:14:32;49.56;45.45;59.93;;
74496;Laerm;62979;55.720;37.606;2023-03-14T02:17:04;49.01;44.65;56.19;;
74496;Laerm;62979;55.720;37.606;2023-03-14T02:19:54;49.73;45.94;58.17;;
74496;Laerm;62979;55.720;37.606;2023-03-14T02:22:23;50.12;44.87;65.91;;
74496;Laerm;62979;55.720;37.606;2023-03-14T02:25:03;49.40;44.74;55.77;;
74496;Laerm;62979;55.720;37.606;2023-03-14T02:27:34;49.63;45.25;62.67;;
74496;Laerm;62979;55.720;37.606;2023-03-14T02:30:06;51.11;44.89;73.14;;
74496;Laerm;62979;55.720;37.606;2023-03-14T02:32:39;49.90;45.60;59.17;;
74496;Laerm;62979;55.720;37.606;2023-03-14T02:35:11;50.60;45.50;58.08;;
74496;Laerm;62979;55.720;37.606;2023-03-14T02:37:44;49.72;45.87;58.35;;
74496;Laerm;62979;55.720;37.606;2023-03-14T02:40:12;51.44;45.66;62.74;;
74496;Laerm;62979;55.720;37.606;2023-03-14T02:42:40;50.23;46.31;58.02;;
74496;Laerm;62979;55.720;37.606;2023-03-14T02:45:44;50.20;45.49;65.91;;
74496;Laerm;62979;55.720;37.606;2023-03-14T02:48:17;50.28;46.18;64.85;;
74496;Laerm;62979;55.720;37.606;2023-03-14T02:50:48;50.25;45.67;69.77;;
74496;Laerm;62979;55.720;37.606;2023-03-14T02:53:19;50.69;45.84;70.31;;
74496;Laerm;62979;55.720;37.606;2023-03-14T02:55:48;50.85;45.67;60.32;;
74496;Laerm;62979;55.720;37.606;2023-03-14T02:58:18;51.17;46.29;62.82;;
74496;Laerm;62979;55.720;37.606;2023-03-14T03:00:46;51.10;46.81;59.52;;
74496;Laerm;62979;55.720;37.606;2023-03-14T03:03:14;51.37;46.97;62.97;;
74496;Laerm;62979;55.720;37.606;2023-03-14T03:05:41;50.78;45.96;56.75;;
74496;Laerm;62979;55.720;37.606;2023-03-14T03:08:10;51.46;46.60;66.06;;
74496;Laerm;62979;55.720;37.606;2023-03-14T03:10:37;50.60;46.89;55.86;;
74496;Laerm;62979;55.720;37.606;2023-03-14T03:13:03;52.28;46.37;59.22;;
74496;Laerm;62979;55.720;37.606;2023-03-14T03:15:32;51.84;47.70;58.79;;
74496;Laerm;62979;55.720;37.606;2023-03-14T03:17:59;51.89;47.52;60.21;;
74496;Laerm;62979;55.720;37.606;2023-03-14T03:20:26;52.60;47.39;66.01;;
74496;Laerm;62979;55.720;37.606;2023-03-14T03:22:53;52.48;47.73;61.19;;
74496;Laerm;62979;55.720;37.606;2023-03-14T03:25:20;54.64;48.72;69.09;;
74496;Laerm;62979;55.720;37.606;2023-03-14T03:27:47;53.20;49.21;72.47;;
74496;Laerm;62979;55.720;37.606;2023-03-14T03:30:14;53.37;49.25;60.47;;
74496;Laerm;62979;55.720;37.606;2023-03-14T03:32:43;53.38;48.93;67.50;;
74496;Laerm;62979;55.720;37.606;2023-03-14T03:35:10;53.80;49.56;72.22;;
74496;Laerm;62979;55.720;37.606;2023-03-14T03:37:37;53.95;50.18;65.13;;
74496;Laerm;62979;55.720;37.606;2023-03-14T03:40:06;54.29;50.00;77.05;;
74496;Laerm;62979;55.720;37.606;2023-03-14T03:42:35;53.82;49.63;64.84;;
74496;Laerm;62979;55.720;37.606;2023-03-14T03:45:03;55.88;49.27;77.62;;
74496;Laerm;62979;55.720;37.606;2023-03-14T03:47:31;55.20;50.34;69.88;;
74496;Laerm;62979;55.720;37.606;2023-03-14T03:49:59;54.11;49.15;69.43;;
74496;Laerm;62979;55.720;37.606;2023-03-14T03:52:26;55.98;50.46;69.31;;
74496;Laerm;62979;55.720;37.606;2023-03-14T03:54:53;55.08;50.37;65.26;;
74496;Laerm;62979;55.720;37.606;2023-03-14T03:57:20;54.74;50.05;71.69;;
74496;Laerm;62979;55.720;37.606;2023-03-14T03:59:47;54.00;49.29;68.32;;
74496;Laerm;62979;55.720;37.606;2023-03-14T04:02:14;55.49;50.99;71.41;;
74496;Laerm;62979;55.720;37.606;2023-03-14T04:04:41;59.33;49.90;69.28;;
74496;Laerm;62979;55.720;37.606;2023-03-14T04:07:09;53.87;50.26;61.20;;
74496;Laerm;62979;55.720;37.606;2023-03-14T04:09:39;54.97;50.43;63.71;;
74496;Laerm;62979;55.720;37.606;2023-03-14T04:12:06;62.56;51.82;73.01;;
74496;Laerm;62979;55.720;37.606;2023-03-14T04:14:33;55.58;51.81;61.58;;
74496;Laerm;62979;55.720;37.606;2023-03-14T04:17:00;54.64;50.33;62.78;;
74496;Laerm;62979;55.720;37.606;2023-03-14T04:19:27;57.47;51.87;75.19;;
74496;Laerm;62979;55.720;37.606;2023-03-14T04:21:54;60.62;52.52;68.56;;
74496;Laerm;62979;55.720;37.606;2023-03-14T04:24:22;56.68;50.98;74.79;;
74496;Laerm;62979;55.720;37.606;2023-03-14T04:26:49;57.49;52.06;69.67;;
74496;Laerm;62979;55.720;37.606;2023-03-14T04:29:16;57.93;51.54;67.06;;
74496;Laerm;62979;55.720;37.606;2023-03-14T04:31:43;57.55;51.62;69.08;;
74496;Laerm;62979;55.720;37.606;2023-03-14T04:34:10;62.02;51.17;75.70;;
74496;Laerm;62979;55.720;37.606;2023-03-14T04:36:37;62.85;54.75;75.83;;
74496;Laerm;62979;55.720;37.606;2023-03-14T04:39:04;60.93;52.97;73.85;;
74496;Laerm;62979;55.720;37.606;2023-03-14T04:41:32;64.56;55.44;78.55;;
74496;Laerm;62979;55.720;37.606;2023-03-14T04:43:59;58.74;52.94;66.54;;
74496;Laerm;62979;55.720;37.606;2023-03-14T04:46:26;61.76;53.13;69.40;;
74496;Laerm;62979;55.720;37.606;2023-03-14T04:48:52;58.23;53.03;65.52;;
74496;Laerm;62979;55.720;37.606;2023-03-14T04:51:21;59.15;53.87;71.46;;
74496;Laerm;62979;55.720;37.606;2023-03-14T04:53:53;60.13;53.05;80.85;;
74496;Laerm;62979;55.720;37.606;2023-03-14T04:56:21;59.89;54.49;74.85;;
74496;Laerm;62979;55.720;37.606;2023-03-14T04:58:49;60.81;54.23;75.00;;
74496;Laerm;62979;55.720;37.606;2023-03-14T05:01:16;60.94;54.64;75.64;;
74496;Laerm;62979;55.720;37.606;2023-03-14T05:03:43;61.75;56.75;76.01;;
74496;Laerm;62979;55.720;37.606;2023-03-14T05:06:10;61.30;55.93;75.99;;
74496;Laerm;62979;55.720;37.606;2023-03-14T05:08:37;61.50;55.58;68.46;;
74496;Laerm;62979;55.720;37.606;2023-03-14T05:11:04;60.07;55.38;66.34;;
74496;Laerm;62979;55.720;37.606;2023-03-14T05:13:31;61.06;55.41;80.49;;
74496;Laerm;62979;55.720;37.606;2023-03-14T05:16:09;62.85;56.45;72.57;;
74496;Laerm;62979;55.720;37.606;2023-03-14T05:18:37;62.10;56.26;78.21;;
74496;Laerm;62979;55.720;37.606;2023-03-14T05:21:04;64.09;54.50;75.32;;
74496;Laerm;62979;55.720;37.606;2023-03-14T05:23:31;64.26;57.38;75.70;;
74496;Laerm;62979;55.720;37.606;2023-03-14T05:25:58;67.23;57.82;72.81;;
74496;Laerm;62979;55.720;37.606;2023-03-14T05:28:25;65.46;57.28;80.12;;
74496;Laerm;62979;55.720;37.606;2023-03-14T05:30:52;62.61;56.02;74.02;;
74496;Laerm;62979;55.720;37.606;2023-03-14T05:33:20;61.73;56.72;68.32;;
74496;Laerm;62979;55.720;37.606;2023-03-14T05:35:47;61.68;57.59;67.12;;
74496;Laerm;62979;55.720;37.606;2023-03-14T05:38:14;61.68;56.00;68.16;;
74496;Laerm;62979;55.720;37.606;2023-03-14T05:40:41;62.32;57.63;72.15;;
74496;Laerm;62979;55.720;37.606;2023-03-14T05:43:08;62.02;56.63;69.66;;
74496;Laerm;62979;55.720;37.606;2023-03-14T05:45:34;62.41;57.55;70.28;;
74496;Laerm;62979;55.720;37.606;2023-03-14T05:48:02;61.67;55.71;72.20;;
74496;Laerm;62979;55.720;37.606;2023-03-14T05:50:30;63.83;57.38;72.05;;
74496;Laerm;62979;55.720;37.606;2023-03-14T05:52:57;61.56;56.65;67.10;;
74496;Laerm;62979;55.720;37.606;2023-03-14T05:55:24;62.34;55.62;76.12;;
74496;Laerm;62979;55.720;37.606;2023-03-14T05:57:50;61.28;54.81;73.49;;
74496;Laerm;62979;55.720;37.606;2023-03-14T06:00:18;61.50;55.71;74.63;;
74496;Laerm;62979;55.720;37.606;2023-03-14T06:02:45;61.55;55.60;69.86;;
74496;Laerm;62979;55.720;37.606;2023-03-14T06:05:12;61.51;56.73;72.08;;
74496;Laerm;62979;55.720;37.606;2023-03-14T06:07:41;61.46;56.84;71.91;;
74496;Laerm;62979;55.720;37.606;2023-03-14T06:10:09;61.37;57.24;77.29;;
74496;Laerm;62979;55.720;37.606;2023-03-14T06:12:36;61.62;56.88;72.67;;
74496;Laerm;62979;55.720;37.606;2023-03-14T06:15:04;61.95;55.94;73.32;;
74496;Laerm;62979;55.720;37.606;2023-03-14T06:17:31;62.90;58.38;73.12;;
74496;Laerm;62979;55.720;37.606;2023-03-14T06:19:58;62.10;54.64;72.56;;
74496;Laerm;62979;55.720;37.606;2023-03-14T06:22:25;62.31;56.90;76.08;;
74496;Laerm;62979;55.720;37.606;2023-03-14T06:24:53;61.80;55.65;74.29;;
74496;Laerm;62979;55.720;37.606;2023-03-14T06:27:20;61.17;56.20;67.68;;
74496;Laerm;62979;55.720;37.606;2023-03-14T06:29:47;62.98;55.43;72.21;;
74496;Laerm;62979;55.720;37.606;2023-03-14T06:32:14;60.88;54.44;72.44;;
74496;Laerm;62979;55.720;37.606;2023-03-14T06:34:41;61.20;55.89;71.16;;
74496;Laerm;62979;55.720;37.606;2023-03-14T06:37:07;61.73;56.05;72.11;;
74496;Laerm;62979;55.720;37.606;2023-03-14T06:39:34;61.42;56.55;75.86;;
74496;Laerm;62979;55.720;37.606;2023-03-14T06:42:05;61.91;54.62;77.56;;
74496;Laerm;62979;55.720;37.606;2023-03-14T06:44:32;59.48;54.81;74.23;;
74496;Laerm;62979;55.720;37.606;2023-03-14T06:46:59;62.27;56.86;79.50;;
74496;Laerm;62979;55.720;37.606;2023-03-14T06:49:26;61.55;56.05;79.87;;
74496;Laerm;62979;55.720;37.606;2023-03-14T06:51:53;60.54;55.05;66.30;;
74496;Laerm;62979;55.720;37.606;2023-03-14T06:54:19;60.69;55.90;70.35;;
74496;Laerm;62979;55.720;37.606;2023-03-14T06:56:46;61.35;55.19;70.83;;
74496;Laerm;62979;55.720;37.606;2023-03-14T06:59:15;61.55;55.10;67.71;;
74496;Laerm;62979;55.720;37.606;2023-03-14T07:01:42;60.46;54.76;71.67;;
74496;Laerm;62979;55.720;37.606;2023-03-14T07:04:09;61.71;55.49;76.48;;
74496;Laerm;62979;55.720;37.606;2023-03-14T07:06:37;60.63;55.32;75.98;;
74496;Laerm;62979;55.720;37.606;2023-03-14T07:09:05;61.11;54.98;73.19;;
74496;Laerm;62979;55.720;37.606;2023-03-14T07:11:32;60.21;54.64;65.98;;
74496;Laerm;62979;55.720;37.606;2023-03-14T07:13:59;61.11;55.15;70.65;;
74496;Laerm;62979;55.720;37.606;2023-03-14T07:16:28;60.22;55.05;75.71;;
74496;Laerm;62979;55.720;37.606;2023-03-14T07:18:58;60.60;55.33;69.30;;
74496;Laerm;62979;55.720;37.606;2023-03-14T07:21:26;61.48;54.96;67.46;;
74496;Laerm;62979;55.720;37.606;2023-03-14T07:23:53;60.76;54.88;70.56;;
74496;Laerm;62979;55.720;37.606;2023-03-14T07:26:20;61.18;55.16;69.77;;
74496;Laerm;62979;55.720;37.606;2023-03-14T07:28:47;61.77;56.69;71.73;;
74496;Laerm;62979;55.720;37.606;2023-03-14T07:31:13;61.22;55.71;72.26;;
74496;Laerm;62979;55.720;37.606;2023-03-14T07:33:42;59.84;54.23;70.16;;
74496;Laerm;62979;55.720;37.606;2023-03-14T07:36:09;59.34;55.15;67.23;;
74496;Laerm;62979;55.720;37.606;2023-03-14T07:38:36;60.86;54.89;79.75;;
74496;Laerm;62979;55.720;37.606;2023-03-14T07:41:06;60.31;54.38;69.37;;
74496;Laerm;62979;55.720;37.606;2023-03-14T07:43:33;58.43;54.32;65.17;;
74496;Laerm;62979;55.720;37.606;2023-03-14T07:46:00;60.78;54.54;66.84;;
74496;Laerm;62979;55.720;37.606;2023-03-14T07:48:27;60.70;55.24;76.92;;
74496;Laerm;62979;55.720;37.606;2023-03-14T07:50:56;61.06;55.38;76.51;;
74496;Laerm;62979;55.720;37.606;2023-03-14T07:53:24;61.09;55.81;71.80;;
74496;Laerm;62979;55.720;37.606;2023-03-14T07:55:52;59.60;54.27;67.70;;
74496;Laerm;62979;55.720;37.606;2023-03-14T07:58:20;59.99;55.68;69.67;;
74496;Laerm;62979;55.720;37.606;2023-03-14T08:00:48;62.03;54.88;78.13;;
74496;Laerm;62979;55.720;37.606;2023-03-14T08:03:16;60.05;54.34;77.17;;
74496;Laerm;62979;55.720;37.606;2023-03-14T08:05:43;61.40;57.12;67.49;;
74496;Laerm;62979;55.720;37.606;2023-03-14T08:08:12;61.58;54.49;80.83;;
74496;Laerm;62979;55.720;37.606;2023-03-14T08:10:39;60.81;54.47;70.42;;
74496;Laerm;62979;55.720;37.606;2023-03-14T08:13:06;61.30;54.58;70.12;;
74496;Laerm;62979;55.720;37.606;2023-03-14T08:15:33;60.20;54.72;73.83;;
74496;Laerm;62979;55.720;37.606;2023-03-14T08:18:00;62.17;55.30;75.48;;
74496;Laerm;62979;55.720;37.606;2023-03-14T08:20:28;63.26;53.50;76.38;;
74496;Laerm;62979;55.720;37.606;2023-03-14T08:22:56;63.61;57.77;72.37;;
74496;Laerm;62979;55.720;37.606;2023-03-14T08:25:25;59.94;53.57;69.09;;
74496;Laerm;62979;55.720;37.606;2023-03-14T08:27:53;61.05;55.10;66.21;;
74496;Laerm;62979;55.720;37.606;2023-03-14T08:30:22;60.89;55.26;67.31;;
74496;Laerm;62979;55.720;37.606;2023-03-14T08:32:48;62.80;56.01;69.43;;
74496;Laerm;62979;55.720;37.606;2023-03-14T08:35:16;61.79;56.34;66.00;;
74496;Laerm;62979;55.720;37.606;2023-03-14T08:37:43;61.74;56.55;80.98;;
74496;Laerm;62979;55.720;37.606;2023-03-14T08:40:12;61.26;55.47;69.80;;
74496;Laerm;62979;55.720;37.606;2023-03-14T08:42:42;59.53;53.45;64.71;;
74496;Laerm;62979;55.720;37.606;2023-03-14T08:45:12;60.17;52.51;69.25;;
74496;Laerm;62979;55.720;37.606;2023-03-14T08:47:39;60.85;55.33;65.66;;
74496;Laerm;62979;55.720;37.606;2023-03-14T08:50:08;61.71;54.78;73.42;;
74496;Laerm;62979;55.720;37.606;2023-03-14T08:52:35;59.77;54.65;69.39;;
74496;Laerm;62979;55.720;37.606;2023-03-14T08:55:04;61.18;55.10;73.98;;
74496;Laerm;62979;55.720;37.606;2023-03-14T08:57:31;61.47;55.53;69.69;;
74496;Laerm;62979;55.720;37.606;2023-03-14T08:59:59;60.07;53.26;68.69;;
74496;Laerm;62979;55.720;37.606;2023-03-14T09:02:26;59.81;53.89;70.83;;
74496;Laerm;62979;55.720;37.606;2023-03-14T09:04:54;61.21;54.39;76.57;;
74496;Laerm;62979;55.720;37.606;2023-03-14T09:07:21;60.83;55.01;66.52;;
74496;Laerm;62979;55.720;37.606;2023-03-14T09:09:47;60.86;55.46;73.20;;
74496;Laerm;62979;55.720;37.606;2023-03-14T09:12:14;60.05;55.07;72.48;;
74496;Laerm;62979;55.720;37.606;2023-03-14T09:14:41;64.48;57.04;78.37;;
74496;Laerm;62979;55.720;37.606;2023-03-14T09:17:10;61.90;54.71;81.49;;
74496;Laerm;62979;55.720;37.606;2023-03-14T09:19:37;61.65;54.93;69.69;;
74496;Laerm;62979;55.720;37.606;2023-03-14T09:22:04;61.38;54.59;68.01;;
74496;Laerm;62979;55.720;37.606;2023-03-14T09:24:31;59.09;54.43;66.58;;
74496;Laerm;62979;55.720;37.606;2023-03-14T09:26:58;59.50;54.14;66.58;;
74496;Laerm;62979;55.720;37.606;2023-03-14T09:29:24;58.37;53.87;66.42;;
74496;Laerm;62979;55.720;37.606;2023-03-14T09:31:52;59.84;54.35;67.48;;
74496;Laerm;62979;55.720;37.606;2023-03-14T09:34:20;62.11;54.09;80.58;;
74496;Laerm;62979;55.720;37.606;2023-03-14T09:36:47;64.20;54.75;83.15;;
74496;Laerm;62979;55.720;37.606;2023-03-14T09:39:14;63.43;55.03;74.64;;
74496;Laerm;62979;55.720;37.606;2023-03-14T09:41:44;62.32;56.32;67.10;;
74496;Laerm;62979;55.720;37.606;2023-03-14T09:44:16;62.21;54.23;79.81;;
74496;Laerm;62979;55.720;37.606;2023-03-14T09:46:51;61.63;55.78;72.58;;
74496;Laerm;62979;55.720;37.606;2023-03-14T09:49:25;61.28;55.04;67.19;;
74496;Laerm;62979;55.720;37.606;2023-03-14T09:51:57;61.78;55.47;70.80;;
74496;Laerm;62979;55.720;37.606;2023-03-14T09:54:32;59.63;53.12;66.71;;
74496;Laerm;62979;55.720;37.606;2023-03-14T09:57:02;59.43;53.75;65.82;;
74496;Laerm;62979;55.720;37.606;2023-03-14T09:59:30;60.68;54.77;69.46;;
74496;Laerm;62979;55.720;37.606;2023-03-14T10:02:00;61.06;56.60;69.21;;
74496;Laerm;62979;55.720;37.606;2023-03-14T10:04:30;61.05;52.95;73.22;;
74496;Laerm;62979;55.720;37.606;2023-03-14T10:06:58;61.34;54.64;67.69;;
74496;Laerm;62979;55.720;37.606;2023-03-14T10:09:25;60.30;54.09;66.78;;
74496;Laerm;62979;55.720;37.606;2023-03-14T10:11:57;59.29;53.17;73.96;;
74496;Laerm;62979;55.720;37.606;2023-03-14T10:14:31;60.74;53.90;69.89;;
74496;Laerm;62979;55.720;37.606;2023-03-14T10:17:07;60.41;54.56;74.10;;
74496;Laerm;62979;55.720;37.606;2023-03-14T10:19:37;61.28;53.23;82.61;;
74496;Laerm;62979;55.720;37.606;2023-03-14T10:22:11;60.62;53.15;65.93;;
74496;Laerm;62979;55.720;37.606;2023-03-14T10:24:45;60.54;55.67;66.94;;
74496;Laerm;62979;55.720;37.606;2023-03-14T10:27:19;59.92;53.52;66.74;;
74496;Laerm;62979;55.720;37.606;2023-03-14T10:29:53;60.04;54.25;70.72;;
74496;Laerm;62979;55.720;37.606;2023-03-14T10:32:23;62.31;56.72;80.52;;
74496;Laerm;62979;55.720;37.606;2023-03-14T10:35:18;60.44;55.83;72.28;;
74496;Laerm;62979;55.720;37.606;2023-03-14T10:37:56;61.33;56.63;68.13;;
74496;Laerm;62979;55.720;37.606;2023-03-14T10:40:28;61.38;54.60;71.85;;
74496;Laerm;62979;55.720;37.606;2023-03-14T10:42:59;60.29;54.00;70.83;;
74496;Laerm;62979;55.720;37.606;2023-03-14T10:45:34;59.60;54.29;65.70;;
74496;Laerm;62979;55.720;37.606;2023-03-14T10:48:19;62.24;53.08;81.17;;
74496;Laerm;62979;55.720;37.606;2023-03-14T10:50:56;62.03;55.37;76.74;;
74496;Laerm;62979;55.720;37.606;2023-03-14T10:53:24;64.10;56.73;81.78;;
74496;Laerm;62979;55.720;37.606;2023-03-14T10:55:51;61.46;55.39;69.86;;
74496;Laerm;62979;55.720;37.606;2023-03-14T10:58:24;62.52;55.75;70.07;;
74496;Laerm;62979;55.720;37.606;2023-03-14T11:01:07;61.82;55.88;75.16;;
74496;Laerm;62979;55.720;37.606;2023-03-14T11:03:41;61.45;55.81;73.18;;
74496;Laerm;62979;55.720;37.606;2023-03-14T11:06:20;62.95;56.56;74.36;;
74496;Laerm;62979;55.720;37.606;2023-03-14T11:08:57;61.37;54.69;73.30;;
74496;Laerm;62979;55.720;37.606;2023-03-14T11:11:30;62.68;57.31;73.24;;
74496;Laerm;62979;55.720;37.606;2023-03-14T11:14:12;61.36;56.24;75.45;;
74496;Laerm;62979;55.720;37.606;2023-03-14T11:16:53;61.49;54.93;71.28;;
74496;Laerm;62979;55.720;37.606;2023-03-14T11:19:40;62.50;57.53;73.57;;
74496;Laerm;62979;55.720;37.606;2023-03-14T11:22:21;62.67;56.87;72.92;;
74496;Laerm;62979;55.720;37.606;2023-03-14T11:25:12;62.58;56.66;82.63;;
74496;Laerm;62979;55.720;37.606;2023-03-14T11:27:44;63.65;57.63;73.99;;
74496;Laerm;62979;55.720;37.606;2023-03-14T11:30:20;62.94;56.92;72.45;;
74496;Laerm;62979;55.720;37.606;2023-03-14T11:33:00;62.11;55.84;69.89;;
74496;Laerm;62979;55.720;37.606;2023-03-14T11:35:34;62.83;57.17;72.01;;
74496;Laerm;62979;55.720;37.606;2023-03-14T11:38:18;63.00;56.20;75.02;;
74496;Laerm;62979;55.720;37.606;2023-03-14T11:40:48;61.28;55.40;74.09;;
74496;Laerm;62979;55.720;37.606;2023-03-14T11:43:24;62.58;55.71;75.43;;
74496;Laerm;62979;55.720;37.606;2023-03-14T11:46:03;65.32;57.53;78.41;;
74496;Laerm;62979;55.720;37.606;2023-03-14T11:48:41;62.26;55.97;84.46;;
74496;Laerm;62979;55.720;37.606;2023-03-14T11:51:21;61.28;56.30;69.71;;
74496;Laerm;62979;55.720;37.606;2023-03-14T11:53:59;60.99;55.82;69.83;;
74496;Laerm;62979;55.720;37.606;2023-03-14T11:56:36;59.80;53.87;72.85;;
74496;Laerm;62979;55.720;37.606;2023-03-14T11:59:13;61.05;54.95;78.01;;
74496;Laerm;62979;55.720;37.606;2023-03-14T12:01:54;62.60;57.52;76.60;;
74496;Laerm;62979;55.720;37.606;2023-03-14T12:04:40;61.51;55.81;71.41;;
74496;Laerm;62979;55.720;37.606;2023-03-14T12:07:18;63.97;56.00;85.53;;
74496;Laerm;62979;55.720;37.606;2023-03-14T12:09:49;62.64;55.83;73.20;;
74496;Laerm;62979;55.720;37.606;2023-03-14T12:12:21;62.07;55.05;73.95;;
74496;Laerm;62979;55.720;37.606;2023-03-14T12:14:55;61.07;54.65;70.65;;
74496;Laerm;62979;55.720;37.606;2023-03-14T12:17:28;62.17;55.98;75.07;;
74496;Laerm;62979;55.720;37.606;2023-03-14T12:20:05;60.94;55.87;67.21;;
74496;Laerm;62979;55.720;37.606;2023-03-14T12:22:36;61.22;55.10;68.76;;
74496;Laerm;62979;55.720;37.606;2023-03-14T12:25:18;60.73;56.15;71.22;;
74496;Laerm;62979;55.720;37.606;2023-03-14T12:28:03;62.37;55.79;72.72;;
74496;Laerm;62979;55.720;37.606;2023-03-14T12:30:33;60.35;55.52;72.19;;
74496;Laerm;62979;55.720;37.606;2023-03-14T12:33:31;60.82;55.60;76.00;;
74496;Laerm;62979;55.720;37.606;2023-03-14T12:36:23;61.43;54.95;75.10;;
74496;Laerm;62979;55.720;37.606;2023-03-14T12:39:30;61.62;54.34;80.20;;
74496;Laerm;62979;55.720;37.606;2023-03-14T12:42:09;61.55;55.86;71.74;;
74496;Laerm;62979;55.720;37.606;2023-03-14T12:44:48;60.52;54.51;76.61;;
74496;Laerm;62979;55.720;37.606;2023-03-14T12:48:01;64.59;54.80;83.80;;
74496;Laerm;62979;55.720;37.606;2023-03-14T12:50:40;61.11;55.16;75.62;;
74496;Laerm;62979;55.720;37.606;2023-03-14T12:53:52;61.11;54.38;75.95;;
74496;Laerm;62979;55.720;37.606;2023-03-14T12:56:37;61.60;56.54;67.53;;
74496;Laerm;62979;55.720;37.606;2023-03-14T12:59:31;60.50;54.73;70.59;;
74496;Laerm;62979;55.720;37.606;2023-03-14T13:02:21;61.64;55.13;69.54;;
74496;Laerm;62979;55.720;37.606;2023-03-14T13:04:53;60.97;55.77;77.47;;
74496;Laerm;62979;55.720;37.606;2023-03-14T13:07:36;62.26;54.10;79.66;;
74496;Laerm;62979;55.720;37.606;2023-03-14T13:10:25;61.48;56.31;68.17;;
74496;Laerm;62979;55.720;37.606;2023-03-14T13:12:56;62.10;57.13;67.83;;
74496;Laerm;62979;55.720;37.606;2023-03-14T13:15:34;60.40;54.83;70.12;;
74496;Laerm;62979;55.720;37.606;2023-03-14T13:18:11;60.77;56.22;68.34;;
74496;Laerm;62979;55.720;37.606;2023-03-14T13:20:45;61.58;56.19;67.60;;
74496;Laerm;62979;55.720;37.606;2023-03-14T13:23:24;59.73;54.40;73.09;;
74496;Laerm;62979;55.720;37.606;2023-03-14T13:25:54;60.99;55.74;67.49;;
74496;Laerm;62979;55.720;37.606;2023-03-14T13:28:21;60.82;53.98;73.75;;
74496;Laerm;62979;55.720;37.606;2023-03-14T13:30:50;60.13;53.27;78.65;;
74496;Laerm;62979;55.720;37.606;2023-03-14T13:33:21;60.79;54.49;68.22;;
74496;Laerm;62979;55.720;37.606;2023-03-14T13:35:54;61.10;55.63;67.79;;
74496;Laerm;62979;55.720;37.606;2023-03-14T13:38:24;62.18;55.17;78.43;;
74496;Laerm;62979;55.720;37.606;2023-03-14T13:40:55;60.75;54.07;68.30;;
74496;Laerm;62979;55.720;37.606;2023-03-14T13:43:29;60.36;53.36;70.12;;
74496;Laerm;62979;55.720;37.606;2023-03-14T13:46:04;60.19;54.73;66.77;;
74496;Laerm;62979;55.720;37.606;2023-03-14T13:48:43;59.17;54.13;72.34;;
74496;Laerm;62979;55.720;37.606;2023-03-14T13:51:14;59.31;52.13;72.51;;